Time;durP1;ratioP1;P1;durP2;ratioP2;P2;SDS_P1;SDS_P2;PMS_P1;PMS_P2;Temp;Humidity;BMP_temperature;BMP_pressure;BME280_temperature;BME280_humidity;BME280_pressure;Samples;Min_cycle;Max_cycle;Signal;HPM_P1;HPM_P2
2020/12/03 00:00:29;;;;;;;0.20;0.20;;;7.80;99.90;;;;;;10364881;28;20406;-73
2020/12/03 00:05:32;;;;;;;0.63;0.63;;;7.70;99.90;;;;;;10347554;28;20203;-73
2020/12/03 00:10:36;;;;;;;0.20;0.20;;;7.90;99.90;;;;;;10365400;28;20210;-72
2020/12/03 00:15:38;;;;;;;0.20;0.10;;;7.90;99.90;;;;;;10365294;28;20197;-73
2020/12/03 00:20:41;;;;;;;0.20;0.10;;;7.80;99.90;;;;;;10404672;28;20235;-73
2020/12/03 00:25:45;;;;;;;0.20;0.20;;;8.10;99.90;;;;;;10404141;28;20234;-73
2020/12/03 00:30:48;;;;;;;0.57;0.33;;;8.00;99.90;;;;;;10402844;28;20285;-72
2020/12/03 00:35:51;;;;;;;0.53;0.53;;;7.80;99.90;;;;;;10365092;28;20635;-71
2020/12/03 00:40:55;;;;;;;1.50;0.93;;;7.70;99.90;;;;;;10364836;28;20226;-71
2020/12/03 00:45:58;;;;;;;1.50;0.87;;;7.70;99.90;;;;;;10364282;28;20191;-72
2020/12/03 00:51:00;;;;;;;0.20;0.10;;;7.60;99.90;;;;;;10364695;28;20209;-72
2020/12/03 00:56:05;;;;;;;0.40;0.40;;;7.40;99.90;;;;;;10364068;28;20278;-72
2020/12/03 01:01:07;;;;;;;1.83;1.70;;;7.40;99.90;;;;;;10364418;28;20318;-71
2020/12/03 01:06:10;;;;;;;0.27;0.23;;;7.40;99.90;;;;;;10363935;28;20199;-71
2020/12/03 01:11:13;;;;;;;1.13;0.73;;;7.40;99.90;;;;;;10364283;28;20198;-72
2020/12/03 01:16:18;;;;;;;0.37;0.37;;;7.50;99.90;;;;;;10363160;28;20539;-72
2020/12/03 01:21:21;;;;;;;0.90;0.73;;;7.60;99.90;;;;;;10363532;28;20226;-73
2020/12/03 01:26:25;;;;;;;0.73;0.47;;;7.60;99.90;;;;;;10363073;28;20202;-72
2020/12/03 01:31:31;;;;;;;0.53;0.53;;;7.60;99.90;;;;;;10362886;28;20199;-73
2020/12/03 01:36:33;;;;;;;1.07;0.97;;;7.70;99.90;;;;;;10356473;28;20209;-73
2020/12/03 01:41:37;;;;;;;0.40;0.40;;;7.60;99.90;;;;;;10362838;28;20241;-69
2020/12/03 01:46:40;;;;;;;0.23;0.13;;;7.20;99.90;;;;;;10370173;28;20195;-72
2020/12/03 01:51:50;;;;;;;0.83;0.67;;;7.20;99.90;;;;;;10370983;28;20373;-71
2020/12/03 01:57:06;;;;;;;0.90;0.50;;;7.20;99.90;;;;;;10370042;28;20199;-73
2020/12/03 02:02:10;;;;;;;2.40;1.43;;;7.10;99.90;;;;;;10370079;28;20230;-72
2020/12/03 02:07:14;;;;;;;0.53;0.53;;;7.10;99.90;;;;;;10370419;28;20201;-71
2020/12/03 02:12:17;;;;;;;1.20;0.87;;;7.10;99.90;;;;;;10369705;28;20651;-72
2020/12/03 02:17:20;;;;;;;0.50;0.50;;;7.10;99.90;;;;;;10368484;28;20548;-72
2020/12/03 02:22:23;;;;;;;1.10;1.03;;;7.00;99.90;;;;;;10371035;28;20222;-73
2020/12/03 02:27:26;;;;;;;1.17;0.83;;;7.00;99.90;;;;;;10379273;28;20624;-71
2020/12/03 02:32:29;;;;;;;0.50;0.50;;;7.10;99.90;;;;;;10384470;28;20227;-73
2020/12/03 02:37:32;;;;;;;3.80;0.77;;;7.20;99.90;;;;;;10376898;28;20294;-73
2020/12/03 02:42:35;;;;;;;0.93;0.70;;;7.20;99.90;;;;;;10369075;28;20595;-73
2020/12/03 02:47:37;;;;;;;0.47;0.47;;;7.10;99.90;;;;;;10368532;28;20195;-73
2020/12/03 02:52:41;;;;;;;0.20;0.10;;;7.10;99.90;;;;;;10368483;28;20217;-73
2020/12/03 02:57:44;;;;;;;1.53;1.13;;;7.00;99.90;;;;;;10366317;28;20211;-73
2020/12/03 03:02:46;;;;;;;0.23;0.23;;;7.00;99.90;;;;;;10380848;22;20277;-74
2020/12/03 03:07:50;;;;;;;0.20;0.10;;;7.00;99.90;;;;;;10368114;28;20197;-74
2020/12/03 03:12:53;;;;;;;0.20;0.20;;;7.00;99.90;;;;;;10367516;28;20206;-74
2020/12/03 03:17:55;;;;;;;0.20;0.10;;;7.00;99.90;;;;;;10367392;28;20207;-73
2020/12/03 03:22:59;;;;;;;0.60;0.60;;;7.00;99.90;;;;;;10406927;28;20593;-74
2020/12/03 03:28:01;;;;;;;1.93;0.77;;;7.00;99.90;;;;;;10406770;28;20198;-73
2020/12/03 03:33:04;;;;;;;0.20;0.10;;;7.00;99.90;;;;;;10389701;28;20336;-74
2020/12/03 03:38:08;;;;;;;0.20;0.10;;;6.80;99.90;;;;;;10366332;28;20206;-74
2020/12/03 03:43:11;;;;;;;0.20;0.10;;;6.80;99.90;;;;;;10366465;28;20284;-74
2020/12/03 03:48:14;;;;;;;0.20;0.10;;;6.70;99.90;;;;;;10359568;28;20195;-73
2020/12/03 03:53:17;;;;;;;0.50;0.50;;;6.70;99.90;;;;;;10366052;28;20558;-73
2020/12/03 03:58:20;;;;;;;0.20;0.10;;;6.70;99.90;;;;;;10365434;28;20281;-73
2020/12/03 04:03:23;;;;;;;0.37;0.30;;;6.80;99.90;;;;;;10386070;22;20956;-71
2020/12/03 04:08:28;;;;;;;0.20;0.10;;;6.70;99.90;;;;;;10403562;28;20293;-73
2020/12/03 04:13:31;;;;;;;0.23;0.23;;;6.70;99.90;;;;;;10401615;28;20218;-72
2020/12/03 04:18:33;;;;;;;0.20;0.10;;;6.60;99.90;;;;;;10403403;28;20208;-70
2020/12/03 04:23:37;;;;;;;0.20;0.20;;;6.70;99.90;;;;;;10404376;28;20226;-74
2020/12/03 04:28:40;;;;;;;0.20;0.10;;;6.80;99.90;;;;;;10389526;28;20564;-73
2020/12/03 04:33:43;;;;;;;0.20;0.10;;;6.60;99.90;;;;;;10363547;28;20283;-73
2020/12/03 04:38:47;;;;;;;0.60;0.30;;;6.30;99.90;;;;;;10403731;28;20252;-72
2020/12/03 04:43:53;;;;;;;0.40;0.30;;;6.20;99.90;;;;;;10403629;28;20231;-73
2020/12/03 04:49:23;;;;;;;0.77;0.77;;;6.10;99.90;;;;;;10402911;28;20202;-73
2020/12/03 04:54:33;;;;;;;0.20;0.20;;;6.00;99.90;;;;;;10403767;28;20210;-73
2020/12/03 04:59:51;;;;;;;0.20;0.20;;;5.90;99.90;;;;;;10402379;28;20190;-72
2020/12/03 05:05:01;;;;;;;0.20;0.13;;;5.80;99.90;;;;;;10383374;28;20225;-72
2020/12/03 05:10:17;;;;;;;0.20;0.10;;;5.90;99.90;;;;;;10360345;28;20194;-72
2020/12/03 05:15:22;;;;;;;0.23;0.23;;;5.90;99.90;;;;;;10362833;28;20209;-72
2020/12/03 05:20:41;;;;;;;0.20;0.10;;;5.90;99.90;;;;;;10368374;28;20203;-73
2020/12/03 05:25:45;;;;;;;1.40;0.33;;;5.80;99.90;;;;;;10371119;28;20203;-70
2020/12/03 05:30:48;;;;;;;0.30;0.20;;;5.80;99.90;;;;;;10353559;28;20289;-71
2020/12/03 05:35:51;;;;;;;0.20;0.20;;;5.80;99.90;;;;;;10370452;28;20194;-72
2020/12/03 05:40:56;;;;;;;0.50;0.50;;;5.80;99.90;;;;;;10370313;28;20683;-72
2020/12/03 05:46:00;;;;;;;0.20;0.10;;;5.80;99.90;;;;;;10364158;28;20195;-71
2020/12/03 05:51:17;;;;;;;0.50;0.30;;;5.80;99.90;;;;;;10369848;28;20801;-71
2020/12/03 05:56:23;;;;;;;0.20;0.10;;;5.90;99.90;;;;;;10369643;28;20195;-72
2020/12/03 06:01:26;;;;;;;0.20;0.20;;;5.90;99.90;;;;;;10351880;28;20262;-73
2020/12/03 06:06:57;;;;;;;0.33;0.30;;;6.10;99.90;;;;;;10369479;28;20234;-73
2020/12/03 06:12:17;;;;;;;0.40;0.30;;;6.30;99.90;;;;;;10369096;28;20195;-72
2020/12/03 06:17:50;;;;;;;0.20;0.10;;;6.60;99.90;;;;;;10364291;28;20225;-72
2020/12/03 06:23:17;;;;;;;0.73;0.60;;;6.50;99.90;;;;;;10366211;28;20223;-71
2020/12/03 06:29:03;;;;;;;0.20;0.10;;;6.40;99.90;;;;;;10384505;28;20202;-72
2020/12/03 06:34:19;;;;;;;0.77;0.70;;;6.50;99.90;;;;;;10355567;28;20686;-71
2020/12/03 06:39:40;;;;;;;1.10;1.00;;;6.50;99.90;;;;;;10367299;28;20229;-73
2020/12/03 06:44:48;;;;;;;0.20;0.20;;;6.50;99.90;;;;;;10365895;28;20309;-70
2020/12/03 06:50:06;;;;;;;0.30;0.30;;;6.40;99.90;;;;;;10349540;28;20589;-72
2020/12/03 06:55:45;;;;;;;0.20;0.20;;;6.30;99.90;;;;;;10370672;28;20213;-72
2020/12/03 07:01:33;;;;;;;0.20;0.10;;;6.30;99.90;;;;;;10347470;28;20273;-73
2020/12/03 07:06:57;;;;;;;0.20;0.20;;;6.20;99.90;;;;;;10332285;28;20285;-72
2020/12/03 07:12:30;;;;;;;0.30;0.20;;;6.20;99.90;;;;;;10365533;28;20194;-72
2020/12/03 07:18:16;;;;;;;0.93;0.43;;;6.40;99.90;;;;;;10355452;28;20199;-72
2020/12/03 07:23:33;;;;;;;0.20;0.10;;;6.60;99.90;;;;;;10303307;28;20698;-73
2020/12/03 07:28:38;;;;;;;0.43;0.27;;;6.90;99.90;;;;;;10364800;28;20557;-75
2020/12/03 07:34:08;;;;;;;0.30;0.30;;;7.10;99.90;;;;;;10360989;28;20282;-73
2020/12/03 07:39:16;;;;;;;0.57;0.57;;;7.20;99.90;;;;;;10384141;28;20210;-73
2020/12/03 07:44:28;;;;;;;1.27;0.57;;;7.50;99.90;;;;;;10404257;28;20268;-71
2020/12/03 07:49:42;;;;;;;0.93;0.23;;;7.80;99.90;;;;;;10403840;28;20281;-73
2020/12/03 07:54:45;;;;;;;0.80;0.73;;;7.80;99.90;;;;;;10342826;28;20201;-71
2020/12/03 07:59:48;;;;;;;0.47;0.47;;;7.70;99.90;;;;;;10402770;28;20238;-69
2020/12/03 08:04:51;;;;;;;0.57;0.50;;;8.00;99.90;;;;;;10403631;28;20224;-72
2020/12/03 08:09:56;;;;;;;0.20;0.10;;;7.90;99.90;;;;;;10388562;28;20267;-72
2020/12/03 08:15:01;;;;;;;0.20;0.10;;;7.90;99.90;;;;;;10363512;28;20662;-71
2020/12/03 08:20:17;;;;;;;0.20;0.10;;;7.80;99.90;;;;;;10363192;28;20620;-72
2020/12/03 08:25:24;;;;;;;0.20;0.10;;;7.60;99.90;;;;;;10363863;28;20352;-71
2020/12/03 08:30:37;;;;;;;0.20;0.10;;;7.70;99.90;;;;;;10363539;28;20191;-73
2020/12/03 08:35:49;;;;;;;10.70;1.33;;;7.60;99.90;;;;;;10363497;28;20195;-72
2020/12/03 08:40:54;;;;;;;1.83;0.97;;;7.50;99.90;;;;;;10362712;28;20695;-73
2020/12/03 08:46:08;;;;;;;0.20;0.10;;;7.40;99.90;;;;;;10368645;28;20195;-70
2020/12/03 08:51:14;;;;;;;0.20;0.10;;;7.50;99.90;;;;;;10363419;28;20675;-72
2020/12/03 08:56:36;;;;;;;0.30;0.30;;;7.70;99.90;;;;;;10362058;28;20280;-72
2020/12/03 09:01:42;;;;;;;0.33;0.30;;;7.90;99.90;;;;;;10362555;28;20268;-71
2020/12/03 09:06:50;;;;;;;0.20;0.10;;;8.30;99.90;;;;;;10368744;28;20194;-71
2020/12/03 09:11:53;;;;;;;0.57;0.57;;;8.60;99.90;;;;;;10383703;28;20551;-72
2020/12/03 09:17:03;;;;;;;0.87;0.80;;;8.70;99.90;;;;;;10356183;28;20266;-72
2020/12/03 09:22:08;;;;;;;0.20;0.10;;;8.80;99.90;;;;;;10362777;28;20763;-71
2020/12/03 09:27:14;;;;;;;0.30;0.30;;;8.80;99.90;;;;;;10362516;28;20217;-72
2020/12/03 09:32:20;;;;;;;0.23;0.17;;;8.90;99.90;;;;;;10344604;28;20217;-71
2020/12/03 09:37:24;;;;;;;0.27;0.23;;;8.90;99.90;;;;;;10343600;28;20322;-74
2020/12/03 09:42:33;;;;;;;1.57;1.20;;;9.00;99.90;;;;;;10343011;28;20232;-71
2020/12/03 09:47:36;;;;;;;0.20;0.20;;;9.20;99.90;;;;;;10361695;28;20656;-71
2020/12/03 09:52:42;;;;;;;0.50;0.50;;;9.30;99.90;;;;;;10355116;28;20612;-70
2020/12/03 09:57:53;;;;;;;0.20;0.10;;;9.50;99.90;;;;;;10361615;28;20624;-72
2020/12/03 10:03:31;;;;;;;0.30;0.30;;;9.70;99.90;;;;;;10343970;28;20289;-72
2020/12/03 10:09:03;;;;;;;0.50;0.37;;;9.80;99.90;;;;;;10351698;28;20374;-71
2020/12/03 10:14:48;;;;;;;0.40;0.30;;;10.30;99.90;;;;;;10368394;28;20210;-70
2020/12/03 10:19:51;;;;;;;1.70;1.60;;;10.40;99.90;;;;;;10320605;28;20209;-71
2020/12/03 10:25:03;;;;;;;0.40;0.40;;;10.80;99.90;;;;;;10366663;28;20586;-71
2020/12/03 10:30:09;;;;;;;0.40;0.37;;;11.20;99.90;;;;;;10333944;28;20202;-72
2020/12/03 10:35:13;;;;;;;0.77;0.50;;;11.30;99.90;;;;;;10367956;28;20226;-71
2020/12/03 10:40:18;;;;;;;0.67;0.67;;;12.00;99.90;;;;;;10374787;28;20198;-70
2020/12/03 10:45:27;;;;;;;1.33;0.90;;;12.40;99.90;;;;;;10367831;28;20230;-71
2020/12/03 10:50:52;;;;;;;1.50;1.03;;;12.40;99.90;;;;;;10366568;28;20268;-69
2020/12/03 10:56:00;;;;;;;0.40;0.40;;;12.20;99.90;;;;;;10348645;28;20289;-72
2020/12/03 11:01:07;;;;;;;6.70;0.53;;;12.50;99.90;;;;;;10366302;28;20225;-74
2020/12/03 11:06:10;;;;;;;0.90;0.50;;;13.00;99.90;;;;;;10366412;28;20203;-72
2020/12/03 11:11:14;;;;;;;0.50;0.37;;;13.20;99.90;;;;;;10366193;28;20651;-71
2020/12/03 11:16:24;;;;;;;0.63;0.50;;;13.20;99.90;;;;;;10365792;28;20200;-72
2020/12/03 11:21:56;;;;;;;0.50;0.43;;;12.80;99.90;;;;;;10364740;28;20210;-71
2020/12/03 11:27:02;;;;;;;0.20;0.10;;;13.20;99.90;;;;;;10365508;28;20206;-72
2020/12/03 11:32:05;;;;;;;0.20;0.00;;;13.50;99.90;;;;;;10365743;28;20564;-72
2020/12/03 11:37:08;;;;;;;0.20;0.10;;;13.40;99.90;;;;;;10348247;28;20869;-73
2020/12/03 11:42:33;;;;;;;0.30;0.30;;;13.00;99.90;;;;;;10364233;28;20233;-71
2020/12/03 11:48:02;;;;;;;0.40;0.33;;;13.20;99.90;;;;;;10368166;28;20201;-71
2020/12/03 11:53:05;;;;;;;0.20;0.20;;;12.80;99.90;;;;;;10377773;28;20282;-70
2020/12/03 11:58:10;;;;;;;0.83;0.30;;;13.10;99.90;;;;;;10365514;28;20278;-72
2020/12/03 12:03:15;;;;;;;1.47;1.10;;;12.90;99.90;;;;;;10363797;28;20314;-70
2020/12/03 12:08:28;;;;;;;0.20;0.10;;;12.90;99.90;;;;;;10364552;28;20207;-71
2020/12/03 12:13:31;;;;;;;0.40;0.30;;;13.00;99.90;;;;;;10364171;28;20194;-73
2020/12/03 12:18:34;;;;;;;0.33;0.30;;;13.00;99.90;;;;;;10392310;28;20190;-71
2020/12/03 12:23:36;;;;;;;2.87;1.10;;;13.20;99.90;;;;;;10403304;28;20316;-70
2020/12/03 12:28:40;;;;;;;0.57;0.57;;;13.20;99.90;;;;;;10401719;28;20405;-74
2020/12/03 12:33:43;;;;;;;0.23;0.23;;;13.30;99.90;;;;;;10402958;28;20270;-72
2020/12/03 12:38:46;;;;;;;0.60;0.53;;;14.20;99.90;;;;;;10392839;28;20290;-72
2020/12/03 12:43:50;;;;;;;0.30;0.30;;;14.40;99.90;;;;;;10363448;28;20233;-70
2020/12/03 12:48:53;;;;;;;0.60;0.30;;;14.30;99.90;;;;;;10396819;28;20196;-71
2020/12/03 12:53:55;;;;;;;0.37;0.37;;;13.90;99.90;;;;;;10402072;28;20202;-72
2020/12/03 12:58:59;;;;;;;0.73;0.73;;;13.60;99.90;;;;;;10401903;28;20195;-72
2020/12/03 13:04:02;;;;;;;1.30;0.60;;;13.40;99.90;;;;;;10401941;28;20238;-71
2020/12/03 13:09:05;;;;;;;0.80;0.60;;;13.40;99.90;;;;;;10384321;28;20190;-69
2020/12/03 13:14:09;;;;;;;0.87;0.87;;;13.10;99.90;;;;;;10400949;28;20552;-71
2020/12/03 13:19:12;;;;;;;1.23;0.83;;;13.20;99.90;;;;;;10401840;28;20190;-69
2020/12/03 13:24:15;;;;;;;1.17;0.90;;;13.60;99.90;;;;;;10398074;28;20353;-71
2020/12/03 13:29:18;;;;;;;0.67;0.43;;;13.20;99.90;;;;;;10397935;28;20292;-72
2020/12/03 13:34:21;;;;;;;0.23;0.23;;;13.20;99.90;;;;;;10398580;28;20281;-72
2020/12/03 13:39:24;;;;;;;0.30;0.30;;;13.20;99.90;;;;;;10365189;28;20226;-70
2020/12/03 13:44:27;;;;;;;1.27;0.63;;;13.30;99.90;;;;;;10371432;28;20231;-69
2020/12/03 13:49:31;;;;;;;0.20;0.10;;;13.20;99.90;;;;;;10370798;28;20523;-74
2020/12/03 13:54:35;;;;;;;2.20;0.83;;;13.50;99.90;;;;;;10385026;28;20667;-72
2020/12/03 13:59:39;;;;;;;0.23;0.17;;;14.20;99.90;;;;;;10409858;28;20196;-71
2020/12/03 14:04:43;;;;;;;0.30;0.20;;;15.10;99.90;;;;;;10362686;28;20328;-73
2020/12/03 14:09:45;;;;;;;0.23;0.23;;;16.00;99.90;;;;;;10370518;28;20282;-70
2020/12/03 14:14:49;;;;;;;0.70;0.60;;;16.70;99.90;;;;;;10370485;28;20318;-72
2020/12/03 14:19:51;;;;;;;0.20;0.10;;;17.00;99.90;;;;;;10371855;28;20206;-70
2020/12/03 14:24:54;;;;;;;1.40;0.50;;;17.70;99.90;;;;;;10372215;28;20284;-70
2020/12/03 14:29:57;;;;;;;0.20;0.10;;;17.60;99.90;;;;;;10362757;28;20282;-70
2020/12/03 14:35:00;;;;;;;0.20;0.10;;;17.30;99.90;;;;;;10368979;28;20640;-72
2020/12/03 14:40:05;;;;;;;3.40;0.43;;;16.10;99.90;;;;;;10367494;28;20206;-71
2020/12/03 14:45:10;;;;;;;0.80;0.37;;;15.00;99.90;;;;;;10368495;28;20313;-71
2020/12/03 14:50:16;;;;;;;0.43;0.33;;;14.80;99.90;;;;;;10366899;28;20277;-72
2020/12/03 14:55:19;;;;;;;1.37;0.60;;;14.90;99.90;;;;;;10367454;28;20255;-73
2020/12/03 15:00:23;;;;;;;0.57;0.30;;;15.10;99.90;;;;;;10367859;28;20261;-70
2020/12/03 15:05:27;;;;;;;1.27;0.50;;;15.20;99.90;;;;;;10367628;28;20234;-71
2020/12/03 15:10:32;;;;;;;0.20;0.20;;;15.50;99.90;;;;;;10366943;28;20195;-71
2020/12/03 15:15:35;;;;;;;0.63;0.63;;;15.40;99.90;;;;;;10367381;28;20264;-70
2020/12/03 15:20:38;;;;;;;0.20;0.20;;;16.20;99.90;;;;;;10381352;28;20202;-71
2020/12/03 15:25:42;;;;;;;0.43;0.43;;;15.20;99.90;;;;;;10405848;28;20279;-71
2020/12/03 15:30:45;;;;;;;1.00;0.87;;;14.40;99.90;;;;;;10404600;28;20190;-71
2020/12/03 15:35:48;;;;;;;0.50;0.33;;;13.90;99.90;;;;;;10404729;28;20677;-71
2020/12/03 15:40:50;;;;;;;0.40;0.40;;;13.40;99.90;;;;;;10379005;28;20313;-71
2020/12/03 15:45:54;;;;;;;0.20;0.20;;;13.00;99.90;;;;;;10371541;28;20222;-71
2020/12/03 15:51:00;;;;;;;0.77;0.53;;;12.90;99.90;;;;;;10377541;28;20283;-73
2020/12/03 15:56:03;;;;;;;0.67;0.67;;;12.60;99.90;;;;;;10348327;28;20210;-70
2020/12/03 16:01:06;;;;;;;1.13;0.53;;;12.40;99.90;;;;;;10367153;28;20782;-71
2020/12/03 16:06:09;;;;;;;0.20;0.20;;;12.40;99.90;;;;;;10364993;28;20227;-72
2020/12/03 16:11:13;;;;;;;0.20;0.10;;;12.40;99.90;;;;;;10345856;28;20225;-71
2020/12/03 16:16:18;;;;;;;1.20;0.50;;;12.20;99.90;;;;;;10365090;28;20259;-72
2020/12/03 16:21:21;;;;;;;0.40;0.40;;;12.30;99.90;;;;;;10365189;28;20201;-73
2020/12/03 16:26:24;;;;;;;3.77;1.07;;;12.00;99.90;;;;;;10359959;28;20219;-71
2020/12/03 16:31:33;;;;;;;3.80;1.13;;;12.00;99.90;;;;;;10364823;28;20194;-73
2020/12/03 16:36:40;;;;;;;6.80;1.13;;;11.90;99.90;;;;;;10362604;28;20298;-71
2020/12/03 16:41:44;;;;;;;0.50;0.50;;;11.90;99.90;;;;;;10365208;28;20198;-72
2020/12/03 16:46:47;;;;;;;0.70;0.67;;;11.80;99.90;;;;;;10346001;28;20697;-72
2020/12/03 16:51:56;;;;;;;0.60;0.60;;;11.60;99.90;;;;;;10356614;28;20203;-70
2020/12/03 16:56:59;;;;;;;1.33;0.67;;;11.60;99.90;;;;;;10363702;28;20198;-75
2020/12/03 17:02:03;;;;;;;0.50;0.50;;;11.60;99.90;;;;;;10363443;28;20455;-74
2020/12/03 17:07:05;;;;;;;1.30;0.50;;;11.50;99.90;;;;;;10363939;28;20282;-74
2020/12/03 17:12:08;;;;;;;2.10;1.40;;;11.50;99.90;;;;;;10357818;28;20205;-72
2020/12/03 17:17:11;;;;;;;1.20;0.40;;;11.40;99.90;;;;;;10370851;28;20275;-74
2020/12/03 17:22:14;;;;;;;0.23;0.23;;;11.40;99.90;;;;;;10372202;28;20206;-74
2020/12/03 17:27:16;;;;;;;0.40;0.40;;;11.50;99.90;;;;;;10380031;28;20194;-73
2020/12/03 17:32:20;;;;;;;0.60;0.40;;;11.50;99.90;;;;;;10407145;28;20269;-73
2020/12/03 17:37:23;;;;;;;0.57;0.33;;;11.30;99.90;;;;;;10370728;28;20225;-71
2020/12/03 17:42:25;;;;;;;2.17;0.77;;;11.40;99.90;;;;;;10370844;28;20219;-72
2020/12/03 17:47:30;;;;;;;5.93;1.93;;;11.30;99.90;;;;;;10370868;28;20609;-72
2020/12/03 17:52:32;;;;;;;5.97;1.57;;;11.30;99.90;;;;;;10370178;28;20648;-71
2020/12/03 17:57:35;;;;;;;1.40;0.63;;;11.30;99.90;;;;;;10354058;28;20285;-72
2020/12/03 18:02:39;;;;;;;0.87;0.20;;;11.20;99.90;;;;;;10382566;28;20317;-72
2020/12/03 18:07:42;;;;;;;1.27;0.63;;;11.20;99.90;;;;;;10408943;28;20224;-72
2020/12/03 18:12:45;;;;;;;3.60;1.27;;;11.30;99.90;;;;;;10408311;28;20202;-71
2020/12/03 18:17:48;;;;;;;0.40;0.40;;;11.20;99.90;;;;;;10409350;28;20238;-70
2020/12/03 18:22:51;;;;;;;0.40;0.40;;;11.10;99.90;;;;;;10364203;28;20790;-72
2020/12/03 18:27:53;;;;;;;7.30;0.80;;;11.10;99.90;;;;;;10408554;28;20281;-73
2020/12/03 18:32:57;;;;;;;0.20;0.20;;;11.20;99.90;;;;;;10392340;28;20289;-72
2020/12/03 18:38:06;;;;;;;0.30;0.30;;;11.10;99.90;;;;;;10375261;28;20221;-74
2020/12/03 18:43:08;;;;;;;0.40;0.33;;;11.10;99.90;;;;;;10378082;28;20241;-73
2020/12/03 18:48:12;;;;;;;1.43;0.60;;;11.10;99.90;;;;;;10369269;28;20286;-71
2020/12/03 18:53:15;;;;;;;0.50;0.43;;;11.00;99.90;;;;;;10362716;28;20203;-73
2020/12/03 18:58:17;;;;;;;0.20;0.20;;;11.10;99.90;;;;;;10379432;28;20285;-73
2020/12/03 19:03:22;;;;;;;5.73;0.53;;;11.00;99.90;;;;;;10381288;28;20670;-72
2020/12/03 19:08:25;;;;;;;0.70;0.70;;;11.10;99.90;;;;;;10367109;28;20218;-72
2020/12/03 19:13:27;;;;;;;0.40;0.40;;;11.10;99.90;;;;;;10368321;28;20273;-75
2020/12/03 19:18:31;;;;;;;0.60;0.60;;;11.00;99.90;;;;;;10405802;28;20285;-73
2020/12/03 19:23:34;;;;;;;0.50;0.47;;;11.00;99.90;;;;;;10376784;28;20301;-73
2020/12/03 19:28:36;;;;;;;0.43;0.43;;;11.00;99.90;;;;;;10406637;28;20200;-73
2020/12/03 19:33:39;;;;;;;6.60;1.43;;;11.00;99.90;;;;;;10366539;28;20245;-72
2020/12/03 19:38:42;;;;;;;1.30;0.90;;;10.90;99.90;;;;;;10364159;28;20199;-71
2020/12/03 19:43:44;;;;;;;2.23;0.83;;;10.80;99.90;;;;;;10365759;28;20699;-71
2020/12/03 19:48:48;;;;;;;1.80;1.30;;;10.80;99.90;;;;;;10396981;28;20593;-71
2020/12/03 19:53:52;;;;;;;0.43;0.43;;;10.80;99.90;;;;;;10380862;28;20209;-72
2020/12/03 19:58:55;;;;;;;0.30;0.30;;;10.90;99.90;;;;;;10385092;28;20209;-71
2020/12/03 20:03:58;;;;;;;4.70;1.30;;;10.60;99.90;;;;;;10403067;28;20234;-70
2020/12/03 20:09:01;;;;;;;0.93;0.87;;;10.40;99.90;;;;;;10392500;28;20306;-72
2020/12/03 20:14:04;;;;;;;2.73;0.90;;;10.50;99.90;;;;;;10367467;28;20201;-72
2020/12/03 20:19:10;;;;;;;0.50;0.50;;;10.50;99.90;;;;;;10363659;28;20274;-72
2020/12/03 20:24:18;;;;;;;0.40;0.40;;;10.50;99.90;;;;;;10361473;28;20739;-73
2020/12/03 20:29:24;;;;;;;1.00;0.93;;;10.40;99.90;;;;;;10363242;28;20580;-68
2020/12/03 20:34:36;;;;;;;1.10;0.63;;;10.10;99.90;;;;;;10344371;28;20212;-70
2020/12/03 20:39:43;;;;;;;0.93;0.53;;;10.00;99.90;;;;;;10339201;28;20195;-71
2020/12/03 20:44:46;;;;;;;0.53;0.53;;;9.70;99.90;;;;;;10363481;28;20222;-72
2020/12/03 20:49:50;;;;;;;0.30;0.30;;;9.60;99.90;;;;;;10363452;28;20194;-71
2020/12/03 20:54:56;;;;;;;1.63;1.13;;;9.90;99.90;;;;;;10345760;28;20558;-72
2020/12/03 20:59:59;;;;;;;0.70;0.60;;;10.00;99.90;;;;;;10364007;28;20306;-72
2020/12/03 21:05:03;;;;;;;0.60;0.60;;;9.90;99.90;;;;;;10364310;28;20231;-72
2020/12/03 21:10:05;;;;;;;1.30;0.90;;;10.00;99.90;;;;;;10351123;28;20182;-73
2020/12/03 21:15:08;;;;;;;0.20;0.13;;;10.40;99.90;;;;;;10364201;28;20638;-73
2020/12/03 21:20:12;;;;;;;0.63;0.40;;;10.60;99.90;;;;;;10364325;28;20198;-73
2020/12/03 21:25:14;;;;;;;0.30;0.30;;;10.60;99.90;;;;;;10372417;28;20406;-72
2020/12/03 21:30:17;;;;;;;2.13;0.43;;;10.60;99.90;;;;;;10368131;28;20198;-71
2020/12/03 21:35:21;;;;;;;7.10;1.03;;;10.80;99.90;;;;;;10357632;28;20205;-70
2020/12/03 21:40:24;;;;;;;0.20;0.10;;;11.00;99.90;;;;;;10403198;28;20612;-72
2020/12/03 21:45:27;;;;;;;0.83;0.37;;;11.00;99.90;;;;;;10404919;28;20221;-70
2020/12/03 21:50:30;;;;;;;0.20;0.00;;;11.10;99.90;;;;;;10385151;28;20198;-70
2020/12/03 21:55:33;;;;;;;0.20;0.00;;;11.20;99.90;;;;;;10403500;28;20202;-70
2020/12/03 22:00:35;;;;;;;0.20;0.03;;;11.30;99.90;;;;;;10405075;28;20321;-71
2020/12/03 22:05:38;;;;;;;0.90;0.60;;;11.20;99.90;;;;;;10409248;28;20316;-70
2020/12/03 22:10:41;;;;;;;0.20;0.20;;;11.20;99.90;;;;;;10410041;28;20360;-72
2020/12/03 22:15:43;;;;;;;4.27;1.40;;;11.20;99.90;;;;;;10392078;28;20201;-70
2020/12/03 22:20:47;;;;;;;0.30;0.17;;;11.30;99.90;;;;;;10362836;28;20195;-70
2020/12/03 22:25:49;;;;;;;0.20;0.17;;;11.30;99.90;;;;;;10370755;28;20267;-73
2020/12/03 22:30:52;;;;;;;1.60;1.50;;;11.30;99.90;;;;;;10369899;28;20340;-72
2020/12/03 22:35:56;;;;;;;0.20;0.10;;;11.30;99.90;;;;;;10368581;28;20202;-71
2020/12/03 22:41:02;;;;;;;0.40;0.30;;;11.20;99.90;;;;;;10429346;28;20194;-72
2020/12/03 22:46:05;;;;;;;0.77;0.70;;;11.10;99.90;;;;;;10424830;28;20769;-71
2020/12/03 22:51:08;;;;;;;0.60;0.40;;;11.10;99.90;;;;;;10414303;28;20285;-70
2020/12/03 22:56:10;;;;;;;0.77;0.57;;;11.00;99.90;;;;;;10408826;28;20697;-72
2020/12/03 23:01:13;;;;;;;9.67;1.13;;;10.80;99.90;;;;;;10399925;28;20310;-71
2020/12/03 23:06:19;;;;;;;0.20;0.10;;;10.80;99.90;;;;;;10368328;28;20687;-72
2020/12/03 23:11:23;;;;;;;2.37;1.23;;;10.70;99.90;;;;;;10387546;28;20281;-73
2020/12/03 23:16:27;;;;;;;1.00;0.70;;;10.70;99.90;;;;;;10407113;28;20491;-71
2020/12/03 23:21:34;;;;;;;0.20;0.10;;;10.70;99.90;;;;;;10406013;28;20194;-73
2020/12/03 23:26:37;;;;;;;0.20;0.10;;;10.60;99.90;;;;;;10405709;28;20222;-71
2020/12/03 23:31:42;;;;;;;0.20;0.10;;;10.70;99.90;;;;;;10400364;28;20232;-71
2020/12/03 23:36:49;;;;;;;0.30;0.20;;;11.00;99.90;;;;;;10349808;28;20578;-71
2020/12/03 23:41:52;;;;;;;0.20;0.10;;;11.10;99.90;;;;;;10393504;28;20194;-70
2020/12/03 23:46:55;;;;;;;0.20;0.10;;;11.10;99.90;;;;;;10388454;28;20588;-71
2020/12/03 23:51:58;;;;;;;0.47;0.37;;;11.10;99.90;;;;;;10405567;28;20498;-71
2020/12/03 23:57:09;;;;;;;0.50;0.20;;;11.10;99.90;;;;;;10399744;28;20589;-71
